Time;durP1;ratioP1;P1;durP2;ratioP2;P2;SDS_P1;SDS_P2;PMS_P1;PMS_P2;Temp;Humidity;BMP_temperature;BMP_pressure;BME280_temperature;BME280_humidity;BME280_pressure;Samples;Min_cycle;Max_cycle;Signal;HPM_P1;HPM_P2
2022/11/15 00:00:47;;;;;;;14.47;10.57;;;8.80;99.90;;;;;;6156593;23;20208;-48
2022/11/15 00:03:21;;;;;;;13.63;9.43;;;8.80;99.90;;;;;;6130800;23;20165;-48
2022/11/15 00:05:47;;;;;;;12.10;8.57;;;8.80;99.90;;;;;;6157071;23;20225;-48
2022/11/15 00:08:13;;;;;;;11.00;8.33;;;9.00;99.90;;;;;;6156480;23;20177;-48
2022/11/15 00:10:39;;;;;;;15.27;9.90;;;9.00;99.90;;;;;;6156528;23;20488;-48
2022/11/15 00:13:12;;;;;;;14.37;8.83;;;9.10;99.90;;;;;;6156456;23;20157;-48
2022/11/15 00:15:39;;;;;;;13.43;8.53;;;9.20;99.90;;;;;;6156669;23;20157;-48
2022/11/15 00:18:05;;;;;;;10.07;7.67;;;9.20;99.90;;;;;;6155898;23;20189;-48
2022/11/15 00:20:33;;;;;;;14.10;8.93;;;9.20;99.90;;;;;;6156035;23;20165;-47
2022/11/15 00:22:59;;;;;;;14.50;9.03;;;9.30;99.90;;;;;;6155935;23;20185;-49
2022/11/15 00:25:25;;;;;;;17.70;11.23;;;9.30;99.90;;;;;;6156068;23;20150;-47
2022/11/15 00:27:51;;;;;;;15.13;10.80;;;9.30;99.90;;;;;;6156007;23;20691;-46
2022/11/15 00:30:17;;;;;;;19.00;10.13;;;9.30;99.90;;;;;;6156403;23;20165;-47
2022/11/15 00:32:42;;;;;;;14.07;10.67;;;9.30;99.90;;;;;;6156437;23;20627;-48
2022/11/15 00:35:08;;;;;;;15.03;10.30;;;9.30;99.90;;;;;;6156111;23;20233;-48
2022/11/15 00:37:34;;;;;;;15.90;10.80;;;9.30;99.90;;;;;;6156264;23;20197;-43
2022/11/15 00:39:59;;;;;;;16.63;10.57;;;9.30;99.90;;;;;;6156064;23;20149;-44
2022/11/15 00:42:25;;;;;;;14.60;10.30;;;9.20;99.90;;;;;;6156137;23;20158;-43
2022/11/15 00:44:50;;;;;;;16.00;11.20;;;9.20;99.90;;;;;;6156405;23;20149;-42
2022/11/15 00:47:16;;;;;;;18.30;11.40;;;9.20;99.90;;;;;;6158287;23;20196;-43
2022/11/15 00:49:41;;;;;;;17.40;10.47;;;9.20;99.90;;;;;;6158246;23;20154;-42
2022/11/15 00:52:07;;;;;;;16.87;9.17;;;9.30;99.90;;;;;;6158064;23;20158;-42
2022/11/15 00:54:32;;;;;;;14.10;8.63;;;9.30;99.90;;;;;;6158552;23;20162;-45
2022/11/15 00:56:58;;;;;;;11.80;8.97;;;9.40;99.90;;;;;;6158206;23;20271;-43
2022/11/15 00:59:23;;;;;;;14.13;8.37;;;9.40;99.90;;;;;;6158176;23;20177;-44
2022/11/15 01:01:49;;;;;;;11.53;8.87;;;9.50;99.90;;;;;;6158043;23;20154;-44
2022/11/15 01:04:15;;;;;;;12.27;8.27;;;9.50;99.90;;;;;;6131672;23;20173;-44
2022/11/15 01:06:40;;;;;;;13.40;7.97;;;9.60;99.90;;;;;;6158152;23;20157;-43
2022/11/15 01:09:06;;;;;;;12.90;8.57;;;9.60;99.90;;;;;;6157767;23;20257;-43
2022/11/15 01:11:31;;;;;;;12.97;8.27;;;9.70;99.90;;;;;;6157867;23;20470;-45
2022/11/15 01:13:57;;;;;;;13.67;8.90;;;9.80;99.90;;;;;;6158221;23;20608;-43
2022/11/15 01:16:22;;;;;;;16.80;10.10;;;9.70;99.90;;;;;;6158335;23;20620;-44
2022/11/15 01:18:48;;;;;;;16.60;9.53;;;9.80;99.90;;;;;;6159076;23;20616;-44
2022/11/15 01:21:16;;;;;;;14.57;9.93;;;9.70;99.90;;;;;;6160023;23;20258;-44
2022/11/15 01:23:43;;;;;;;17.10;10.47;;;9.60;99.90;;;;;;6158948;23;20161;-43
2022/11/15 01:26:12;;;;;;;14.70;9.93;;;9.60;99.90;;;;;;6157657;23;20543;-44
2022/11/15 01:28:40;;;;;;;11.93;8.77;;;9.60;99.90;;;;;;6157762;23;20514;-44
2022/11/15 01:31:12;;;;;;;12.03;8.23;;;9.60;99.90;;;;;;6157563;23;20152;-44
2022/11/15 01:33:37;;;;;;;11.27;8.20;;;9.60;99.90;;;;;;6157817;23;20149;-44
2022/11/15 01:36:04;;;;;;;12.33;8.23;;;9.70;99.90;;;;;;6157551;23;20631;-45
2022/11/15 01:38:30;;;;;;;14.07;7.87;;;9.80;99.90;;;;;;6157730;23;20207;-41
2022/11/15 01:40:56;;;;;;;12.93;7.07;;;9.80;99.90;;;;;;6157826;23;20161;-44
2022/11/15 01:43:24;;;;;;;10.73;7.07;;;9.90;99.90;;;;;;6157761;23;20158;-45
2022/11/15 01:46:03;;;;;;;10.07;7.13;;;9.90;99.90;;;;;;6157332;23;20163;-42
2022/11/15 01:48:33;;;;;;;13.93;8.07;;;9.90;99.90;;;;;;6157557;23;20175;-44
2022/11/15 01:51:02;;;;;;;13.80;8.40;;;9.90;99.90;;;;;;6157737;23;20169;-44
2022/11/15 01:53:29;;;;;;;12.60;8.17;;;9.90;99.90;;;;;;6157578;23;20157;-44
2022/11/15 01:55:55;;;;;;;12.00;7.97;;;9.80;99.90;;;;;;6156991;23;20162;-44
2022/11/15 01:58:21;;;;;;;10.13;7.70;;;9.70;99.90;;;;;;6157346;23;20198;-44
2022/11/15 02:00:49;;;;;;;9.70;7.23;;;9.70;99.90;;;;;;6157501;23;20157;-46
2022/11/15 02:03:15;;;;;;;12.37;7.80;;;9.60;99.90;;;;;;6157009;23;20607;-43
2022/11/15 02:05:41;;;;;;;11.77;7.13;;;9.60;99.90;;;;;;6157306;23;20152;-43
2022/11/15 02:08:08;;;;;;;10.40;7.17;;;9.60;99.90;;;;;;6157446;23;20205;-43
2022/11/15 02:10:33;;;;;;;15.27;8.20;;;9.60;99.90;;;;;;6130976;23;20170;-43
2022/11/15 02:13:00;;;;;;;16.20;8.20;;;9.50;99.90;;;;;;6157066;23;20166;-43
2022/11/15 02:15:34;;;;;;;11.43;7.70;;;9.60;99.90;;;;;;6157182;23;20162;-44
2022/11/15 02:18:33;;;;;;;12.87;8.37;;;9.70;99.90;;;;;;6156994;23;20193;-43
2022/11/15 02:21:29;;;;;;;14.90;7.93;;;9.70;99.90;;;;;;6157498;23;20146;-44
2022/11/15 02:23:58;;;;;;;11.90;7.80;;;9.70;99.90;;;;;;6157739;23;20487;-49
2022/11/15 02:26:38;;;;;;;16.70;8.13;;;9.70;99.90;;;;;;6157032;23;20166;-50
2022/11/15 02:29:22;;;;;;;14.57;8.17;;;9.70;99.90;;;;;;6157463;23;20185;-50
2022/11/15 02:32:03;;;;;;;13.53;8.10;;;9.70;99.90;;;;;;6157017;23;20236;-50
2022/11/15 02:34:57;;;;;;;13.13;8.17;;;9.70;99.90;;;;;;6157515;23;20157;-49
2022/11/15 02:37:38;;;;;;;11.43;7.90;;;9.70;99.90;;;;;;6156835;23;20182;-50
2022/11/15 02:40:30;;;;;;;12.00;7.97;;;9.70;99.90;;;;;;6157627;23;20581;-49
2022/11/15 02:49:40;;;;;;;9.03;6.70;;;9.80;99.90;;;;;;6148757;23;20169;-50
2022/11/15 02:52:05;;;;;;;13.70;7.97;;;9.80;99.90;;;;;;6130725;23;20159;-49
2022/11/15 02:54:33;;;;;;;13.83;7.80;;;9.90;99.90;;;;;;6156688;23;20161;-50
2022/11/15 02:57:06;;;;;;;14.17;8.37;;;10.00;99.90;;;;;;6156562;23;20621;-48
2022/11/15 02:59:57;;;;;;;11.93;7.93;;;10.00;99.90;;;;;;6156741;23;20181;-48
2022/11/15 03:02:28;;;;;;;15.40;8.77;;;10.00;99.90;;;;;;6157506;23;20159;-50
2022/11/15 03:05:00;;;;;;;13.53;8.23;;;10.10;99.90;;;;;;6156348;23;20519;-49
2022/11/15 03:07:54;;;;;;;12.07;8.27;;;10.10;99.90;;;;;;6156593;23;20577;-48
2022/11/15 03:10:47;;;;;;;12.17;7.80;;;10.00;99.90;;;;;;6156572;23;20174;-50
2022/11/15 03:13:26;;;;;;;9.20;6.83;;;10.00;99.90;;;;;;6156482;23;20147;-49
2022/11/15 03:16:03;;;;;;;14.87;7.23;;;10.10;99.90;;;;;;6156460;23;20629;-49
2022/11/15 03:19:05;;;;;;;11.10;7.20;;;10.10;99.90;;;;;;6156482;23;20274;-50
2022/11/15 03:21:32;;;;;;;14.73;6.57;;;10.10;99.90;;;;;;6151873;23;20198;-50
2022/11/15 03:24:03;;;;;;;12.30;7.23;;;10.20;99.90;;;;;;6156403;23;20161;-50
2022/11/15 03:26:30;;;;;;;12.37;7.80;;;10.30;99.90;;;;;;6156357;23;20147;-49
2022/11/15 03:29:06;;;;;;;11.73;7.30;;;10.30;99.90;;;;;;6156642;23;20493;-50
2022/11/15 03:31:49;;;;;;;13.87;7.40;;;10.40;99.90;;;;;;6156411;23;20141;-43
2022/11/15 03:34:20;;;;;;;12.60;8.20;;;10.40;99.90;;;;;;6156648;23;20156;-44
2022/11/15 03:36:47;;;;;;;11.00;8.03;;;10.40;99.90;;;;;;6156174;23;20179;-46
2022/11/15 03:39:13;;;;;;;12.67;7.47;;;10.40;99.90;;;;;;6156414;23;20180;-44
2022/11/15 03:42:24;;;;;;;13.97;8.03;;;10.50;99.90;;;;;;6156500;23;20184;-44
2022/11/15 03:45:03;;;;;;;12.33;8.00;;;10.40;99.90;;;;;;6156955;23;20586;-44
2022/11/15 03:47:36;;;;;;;11.97;7.97;;;10.40;99.90;;;;;;6156475;23;20143;-43
2022/11/15 03:50:16;;;;;;;13.97;7.80;;;10.40;99.90;;;;;;6156110;23;20483;-45
2022/11/15 03:52:44;;;;;;;11.23;7.93;;;10.30;99.90;;;;;;6130329;23;20147;-44
2022/11/15 03:55:15;;;;;;;12.23;7.30;;;10.30;99.90;;;;;;6156144;23;20249;-43
2022/11/15 03:57:40;;;;;;;11.27;7.10;;;10.40;99.90;;;;;;6155947;23;20656;-44
2022/11/15 04:00:07;;;;;;;16.53;7.70;;;10.40;99.90;;;;;;6156502;23;20206;-45
2022/11/15 04:02:33;;;;;;;9.60;7.40;;;10.40;99.90;;;;;;6156411;23;20236;-44
2022/11/15 04:04:58;;;;;;;12.37;7.47;;;10.50;99.90;;;;;;6155976;23;20532;-43
2022/11/15 04:07:24;;;;;;;11.50;7.13;;;10.40;99.90;;;;;;6155907;23;20191;-45
2022/11/15 04:10:07;;;;;;;9.00;7.17;;;10.50;99.90;;;;;;6156001;23;20151;-43
2022/11/15 04:12:35;;;;;;;10.80;6.87;;;10.50;99.90;;;;;;6156386;23;20153;-43
2022/11/15 04:15:08;;;;;;;11.97;5.90;;;10.50;99.90;;;;;;6156404;23;20168;-46
2022/11/15 04:17:44;;;;;;;11.47;6.30;;;10.50;99.90;;;;;;6155804;23;20195;-45
2022/11/15 04:25:52;;;;;;;8.60;5.53;;;10.60;99.90;;;;;;6156012;23;20173;-42
2022/11/15 04:28:18;;;;;;;8.00;5.13;;;10.60;99.90;;;;;;6155817;23;20189;-45
2022/11/15 04:30:44;;;;;;;7.47;5.57;;;10.70;99.90;;;;;;6156296;23;20218;-45
2022/11/15 04:33:10;;;;;;;7.17;5.23;;;10.60;99.90;;;;;;6156223;23;20183;-44
2022/11/15 04:35:35;;;;;;;6.47;5.33;;;10.70;99.90;;;;;;6155848;23;20155;-43
2022/11/15 04:38:03;;;;;;;7.87;5.63;;;10.70;99.90;;;;;;6155944;23;20200;-44
2022/11/15 04:40:29;;;;;;;8.37;5.70;;;10.60;99.90;;;;;;6156776;23;20162;-43
2022/11/15 04:42:54;;;;;;;9.47;5.63;;;10.70;99.90;;;;;;6155918;23;20235;-44
2022/11/15 04:45:20;;;;;;;9.27;5.53;;;10.70;99.90;;;;;;6156421;23;20161;-43
2022/11/15 04:47:46;;;;;;;9.83;5.53;;;10.60;99.90;;;;;;6156209;23;20184;-43
2022/11/15 04:50:13;;;;;;;15.13;5.60;;;10.60;99.90;;;;;;6155838;23;20160;-44
2022/11/15 04:52:59;;;;;;;7.53;5.67;;;10.60;99.90;;;;;;6155786;23;20161;-44
2022/11/15 04:55:24;;;;;;;6.63;5.20;;;10.60;99.90;;;;;;6155674;23;20250;-44
2022/11/15 04:57:58;;;;;;;6.57;5.30;;;10.50;99.90;;;;;;6155674;23;20223;-46
2022/11/15 05:00:24;;;;;;;6.50;5.17;;;10.50;99.90;;;;;;6156124;23;20149;-45
2022/11/15 05:05:34;;;;;;;8.80;5.10;;;10.50;99.90;;;;;;6155788;23;20239;-42
2022/11/15 05:08:00;;;;;;;7.17;4.80;;;10.50;99.90;;;;;;6155576;23;20225;-45
2022/11/15 05:10:26;;;;;;;8.20;5.10;;;10.50;99.90;;;;;;6155709;23;20161;-44
2022/11/15 05:12:51;;;;;;;8.67;5.30;;;10.60;99.90;;;;;;6155761;23;20165;-43
2022/11/15 05:15:17;;;;;;;7.57;5.57;;;10.50;99.90;;;;;;6155672;23;20163;-43
2022/11/15 05:17:42;;;;;;;7.00;5.50;;;10.50;99.90;;;;;;6155883;23;20215;-42
2022/11/15 05:20:08;;;;;;;5.83;4.90;;;10.50;99.90;;;;;;6155991;23;20609;-45
2022/11/15 05:22:34;;;;;;;6.60;4.80;;;10.60;99.90;;;;;;6156494;23;20252;-46
2022/11/15 05:24:59;;;;;;;5.37;4.30;;;10.60;99.90;;;;;;6155695;23;20232;-44
2022/11/15 05:27:25;;;;;;;7.27;5.37;;;10.60;99.90;;;;;;6155725;23;20602;-46
2022/11/15 05:29:50;;;;;;;5.87;4.17;;;10.60;99.90;;;;;;6155658;23;20160;-45
2022/11/15 05:32:17;;;;;;;4.73;4.23;;;10.60;99.90;;;;;;6156618;23;20160;-44
2022/11/15 05:34:43;;;;;;;6.13;4.57;;;10.60;99.90;;;;;;6157354;23;20191;-44
2022/11/15 05:37:09;;;;;;;5.63;4.40;;;10.50;99.90;;;;;;6157248;23;20514;-43
2022/11/15 05:39:34;;;;;;;6.77;4.77;;;10.60;99.90;;;;;;6157341;23;20247;-45
2022/11/15 05:42:06;;;;;;;6.30;4.83;;;10.50;99.90;;;;;;6157283;23;20485;-43
2022/11/15 05:44:33;;;;;;;4.87;4.23;;;10.50;99.90;;;;;;6158021;23;20230;-44
2022/11/15 05:46:59;;;;;;;4.90;4.33;;;10.50;99.90;;;;;;6157317;23;20188;-45
2022/11/15 05:49:29;;;;;;;6.63;4.30;;;10.50;99.90;;;;;;6157332;23;20184;-45
2022/11/15 05:51:56;;;;;;;8.17;4.20;;;10.40;99.90;;;;;;6157287;23;20228;-44
2022/11/15 05:54:23;;;;;;;4.60;3.53;;;10.40;99.90;;;;;;6157542;23;20164;-44
2022/11/15 05:56:49;;;;;;;8.50;4.07;;;10.30;99.90;;;;;;6157148;23;20627;-44
2022/11/15 05:59:15;;;;;;;4.93;4.23;;;10.30;99.90;;;;;;6157107;23;20174;-46
2022/11/15 06:01:41;;;;;;;5.33;4.40;;;10.30;99.90;;;;;;6157512;23;20240;-43
2022/11/15 06:04:07;;;;;;;4.67;4.10;;;10.30;99.90;;;;;;6157157;23;20244;-44
2022/11/15 06:06:32;;;;;;;5.50;3.63;;;10.30;99.90;;;;;;6157152;23;20603;-44
2022/11/15 06:08:58;;;;;;;4.30;3.90;;;10.30;99.90;;;;;;6156962;23;20179;-43
2022/11/15 06:11:23;;;;;;;3.70;3.00;;;10.20;99.90;;;;;;6157696;23;20165;-45
2022/11/15 06:13:49;;;;;;;7.67;3.97;;;10.30;99.90;;;;;;6157355;23;20249;-44
2022/11/15 06:16:15;;;;;;;4.47;3.50;;;10.30;99.90;;;;;;6157260;23;20168;-44
2022/11/15 06:18:40;;;;;;;2.40;2.17;;;10.40;99.90;;;;;;6157234;23;20184;-45
2022/11/15 06:21:06;;;;;;;3.00;1.90;;;10.40;99.90;;;;;;6157031;23;20153;-45
2022/11/15 06:23:33;;;;;;;1.60;1.50;;;10.40;99.90;;;;;;6157200;23;20529;-44
2022/11/15 06:25:59;;;;;;;2.47;1.40;;;10.50;99.90;;;;;;6156850;23;20674;-45
2022/11/15 06:28:28;;;;;;;1.93;1.57;;;10.50;99.90;;;;;;6157800;23;20202;-45
2022/11/15 06:30:53;;;;;;;1.90;1.63;;;10.60;99.90;;;;;;6156853;23;20162;-44
2022/11/15 06:33:19;;;;;;;2.87;1.50;;;10.60;99.90;;;;;;6156853;23;20236;-44
2022/11/15 06:35:44;;;;;;;1.50;1.33;;;10.70;99.90;;;;;;6157150;23;20168;-45
2022/11/15 06:38:11;;;;;;;1.70;1.30;;;10.70;99.90;;;;;;6156944;23;20203;-45
2022/11/15 06:40:38;;;;;;;1.40;1.03;;;10.70;99.90;;;;;;6156811;23;20153;-44
2022/11/15 06:43:05;;;;;;;1.53;1.00;;;10.80;99.90;;;;;;6156733;23;20159;-45
2022/11/15 06:45:31;;;;;;;1.33;1.00;;;10.80;99.90;;;;;;6157088;23;20161;-44
2022/11/15 06:47:57;;;;;;;1.87;0.80;;;10.80;99.90;;;;;;6156636;23;20181;-46
2022/11/15 06:50:22;;;;;;;0.50;0.50;;;10.90;99.90;;;;;;6156973;23;20184;-45
2022/11/15 06:52:48;;;;;;;0.67;0.67;;;10.90;99.90;;;;;;6156704;23;20158;-46
2022/11/15 06:55:14;;;;;;;1.60;0.77;;;10.80;99.90;;;;;;6157024;23;20168;-45
2022/11/15 06:57:50;;;;;;;1.57;0.87;;;10.80;99.90;;;;;;6156547;23;20529;-45
2022/11/15 07:00:17;;;;;;;0.83;0.60;;;10.70;99.90;;;;;;6157347;23;20148;-46
2022/11/15 07:02:43;;;;;;;1.20;0.67;;;10.70;99.90;;;;;;6156926;23;20496;-46
2022/11/15 07:05:08;;;;;;;0.60;0.60;;;10.70;99.90;;;;;;6156464;23;20633;-45
2022/11/15 07:07:34;;;;;;;0.70;0.70;;;10.70;99.90;;;;;;6156473;23;20498;-44
2022/11/15 07:09:59;;;;;;;1.07;0.73;;;10.70;99.90;;;;;;6156520;23;20157;-46
2022/11/15 07:12:25;;;;;;;0.70;0.70;;;10.70;99.90;;;;;;6130743;23;20245;-46
2022/11/15 07:14:50;;;;;;;1.30;0.80;;;10.70;99.90;;;;;;6157373;23;20164;-50
2022/11/15 07:17:16;;;;;;;0.70;0.70;;;10.70;99.90;;;;;;6160688;23;20180;-49
2022/11/15 07:19:42;;;;;;;1.03;0.77;;;10.70;99.90;;;;;;6160158;23;20160;-49
2022/11/15 07:22:07;;;;;;;1.47;0.70;;;10.70;99.90;;;;;;6159314;23;20161;-50
2022/11/15 07:24:33;;;;;;;1.60;0.80;;;10.60;99.90;;;;;;6159515;23;20164;-48
2022/11/15 07:26:58;;;;;;;2.93;0.70;;;10.60;99.90;;;;;;6158920;23;20158;-50
2022/11/15 07:29:24;;;;;;;3.67;0.90;;;10.60;99.90;;;;;;6160419;23;20559;-51
2022/11/15 07:31:50;;;;;;;0.90;0.80;;;10.60;99.90;;;;;;6158360;23;20172;-50
2022/11/15 07:34:16;;;;;;;1.60;0.60;;;10.60;99.90;;;;;;6158310;23;20197;-51
2022/11/15 07:36:41;;;;;;;0.63;0.50;;;10.60;99.90;;;;;;6157916;23;20190;-50
2022/11/15 07:39:07;;;;;;;0.83;0.70;;;10.60;99.90;;;;;;6158159;23;20608;-50
2022/11/15 07:41:32;;;;;;;1.63;0.80;;;10.60;99.90;;;;;;6157430;23;20229;-50
2022/11/15 07:43:58;;;;;;;3.80;0.77;;;10.60;99.90;;;;;;6157637;23;20208;-50
2022/11/15 07:46:24;;;;;;;2.23;0.90;;;10.60;99.90;;;;;;6157970;23;20229;-50
2022/11/15 07:48:49;;;;;;;1.87;0.70;;;10.50;99.90;;;;;;6157496;23;20509;-49
2022/11/15 07:51:16;;;;;;;2.13;0.70;;;10.60;99.90;;;;;;6157162;23;20167;-49
2022/11/15 07:53:43;;;;;;;2.67;0.60;;;10.60;99.90;;;;;;6157458;23;20216;-50
2022/11/15 07:56:09;;;;;;;1.70;0.70;;;10.50;99.90;;;;;;6157169;23;20208;-50
2022/11/15 07:58:36;;;;;;;1.97;0.73;;;10.60;99.90;;;;;;6156918;23;20651;-50
2022/11/15 08:01:06;;;;;;;2.57;0.60;;;10.50;99.90;;;;;;6157236;23;20506;-50
2022/11/15 08:03:32;;;;;;;0.60;0.60;;;10.50;99.90;;;;;;6157112;23;20171;-49
2022/11/15 08:05:57;;;;;;;2.20;0.87;;;10.60;99.90;;;;;;6157321;23;20139;-50
2022/11/15 08:08:23;;;;;;;1.13;0.70;;;10.60;99.90;;;;;;6130873;23;20561;-51
2022/11/15 08:10:48;;;;;;;1.47;0.83;;;10.60;99.90;;;;;;6156677;23;20191;-51
2022/11/15 08:13:14;;;;;;;0.80;0.80;;;10.70;99.90;;;;;;6156556;23;20194;-50
2022/11/15 08:15:40;;;;;;;1.33;0.93;;;10.70;99.90;;;;;;6156702;23;20184;-51
2022/11/15 08:18:09;;;;;;;1.57;0.90;;;10.70;99.90;;;;;;6157120;23;20192;-51
2022/11/15 08:20:35;;;;;;;1.63;1.00;;;10.80;99.90;;;;;;6156421;23;20157;-51
2022/11/15 08:23:04;;;;;;;1.40;1.10;;;10.70;99.90;;;;;;6156610;23;20149;-49
2022/11/15 08:25:31;;;;;;;1.93;0.90;;;10.80;99.90;;;;;;6156567;23;20153;-50
2022/11/15 08:28:00;;;;;;;1.17;1.07;;;10.80;99.90;;;;;;6156299;23;20617;-49
2022/11/15 08:30:26;;;;;;;2.10;1.00;;;10.80;99.90;;;;;;6156517;23;20154;-50
2022/11/15 08:32:53;;;;;;;3.07;1.07;;;10.80;99.90;;;;;;6156320;23;20188;-51
2022/11/15 08:35:20;;;;;;;3.27;1.00;;;10.80;99.90;;;;;;6156774;23;20161;-51
2022/11/15 08:37:46;;;;;;;1.77;0.80;;;10.80;99.90;;;;;;6154674;23;20278;-52
2022/11/15 08:40:13;;;;;;;1.10;1.00;;;10.90;99.90;;;;;;6156210;23;20595;-51
2022/11/15 08:42:39;;;;;;;3.43;1.00;;;10.80;99.90;;;;;;6156494;23;20166;-51
2022/11/15 08:45:06;;;;;;;2.30;1.30;;;10.90;99.90;;;;;;6156257;23;20185;-50
2022/11/15 08:47:32;;;;;;;1.50;0.83;;;10.90;99.90;;;;;;6156125;23;21498;-51
2022/11/15 08:49:57;;;;;;;1.27;1.00;;;11.00;99.90;;;;;;6156815;23;20596;-50
2022/11/15 08:52:23;;;;;;;4.57;1.27;;;11.00;99.90;;;;;;6155933;23;20168;-50
2022/11/15 08:54:48;;;;;;;3.17;1.10;;;11.10;99.90;;;;;;6156225;23;20232;-50
2022/11/15 08:57:14;;;;;;;2.03;1.40;;;11.20;99.90;;;;;;6155647;23;20189;-51
2022/11/15 08:59:40;;;;;;;2.70;1.40;;;11.20;99.90;;;;;;6155864;23;20537;-50
2022/11/15 09:02:05;;;;;;;2.23;1.50;;;11.20;99.90;;;;;;6155803;23;20216;-51
2022/11/15 09:04:32;;;;;;;2.00;1.57;;;11.30;99.90;;;;;;6155853;23;20173;-51
2022/11/15 09:06:57;;;;;;;1.40;1.30;;;11.30;99.90;;;;;;6156645;23;20158;-51
2022/11/15 09:09:23;;;;;;;4.47;1.73;;;11.40;99.90;;;;;;6157677;23;20516;-50
2022/11/15 09:11:50;;;;;;;1.53;1.20;;;11.40;99.90;;;;;;6158074;23;20186;-51
2022/11/15 09:14:16;;;;;;;2.90;1.77;;;11.40;99.90;;;;;;6158885;23;20524;-51
2022/11/15 09:16:41;;;;;;;2.80;1.30;;;11.50;99.90;;;;;;6157972;23;20185;-50
2022/11/15 09:19:07;;;;;;;2.00;1.30;;;11.60;99.90;;;;;;6157862;23;20180;-50
2022/11/15 09:21:33;;;;;;;1.77;1.20;;;11.60;99.90;;;;;;6158210;23;20161;-50
2022/11/15 09:23:58;;;;;;;3.03;1.10;;;11.70;99.90;;;;;;6157980;23;20240;-50
2022/11/15 09:26:24;;;;;;;1.90;0.90;;;11.70;99.90;;;;;;6157869;23;20153;-52
2022/11/15 09:28:50;;;;;;;3.07;1.10;;;11.70;99.90;;;;;;6158046;23;20170;-52
2022/11/15 09:31:16;;;;;;;2.17;1.50;;;11.70;99.90;;;;;;6158240;23;20233;-52
2022/11/15 09:33:45;;;;;;;2.43;1.03;;;11.80;99.90;;;;;;6158132;23;20153;-50
2022/11/15 09:36:11;;;;;;;1.83;1.00;;;11.80;99.90;;;;;;6158526;23;20491;-50
2022/11/15 09:38:37;;;;;;;4.00;1.00;;;11.80;99.90;;;;;;6158272;23;20217;-51
2022/11/15 09:41:43;;;;;;;2.70;1.07;;;11.90;99.90;;;;;;6158134;23;20157;-50
2022/11/15 09:44:26;;;;;;;7.37;1.50;;;12.00;99.90;;;;;;6125149;23;20193;-51
2022/11/15 09:47:03;;;;;;;5.23;1.73;;;12.10;99.90;;;;;;6158465;23;20180;-51
2022/11/15 09:49:30;;;;;;;2.83;1.60;;;12.10;99.90;;;;;;6157766;23;20231;-52
2022/11/15 09:51:56;;;;;;;4.00;2.10;;;12.20;99.90;;;;;;6159747;23;20161;-51
2022/11/15 09:54:46;;;;;;;3.87;1.20;;;12.20;99.90;;;;;;6172896;23;20164;-44
2022/11/15 09:57:38;;;;;;;2.07;0.90;;;12.40;99.90;;;;;;6162128;23;20177;-44
2022/11/15 10:00:19;;;;;;;4.53;1.20;;;12.40;99.90;;;;;;6158158;23;20149;-45
2022/11/15 10:03:23;;;;;;;2.90;1.40;;;12.40;99.90;;;;;;6157890;23;20146;-44
2022/11/15 10:05:54;;;;;;;2.43;0.90;;;12.50;99.90;;;;;;6151256;23;20169;-44
2022/11/15 10:08:31;;;;;;;1.30;0.87;;;12.50;99.90;;;;;;6157397;23;20563;-44
2022/11/15 10:11:19;;;;;;;1.13;0.60;;;12.50;99.90;;;;;;6157073;23;20220;-43
2022/11/15 10:13:47;;;;;;;2.57;0.80;;;12.60;99.90;;;;;;6156917;23;20531;-46
2022/11/15 10:16:24;;;;;;;3.37;1.07;;;12.60;99.90;;;;;;6157322;23;20164;-45
2022/11/15 10:19:04;;;;;;;1.80;0.90;;;12.70;99.90;;;;;;6157072;23;20188;-44
2022/11/15 10:21:35;;;;;;;2.23;0.97;;;12.80;99.90;;;;;;6156990;23;20200;-44
2022/11/15 10:24:01;;;;;;;3.33;0.80;;;12.80;99.90;;;;;;6157582;23;20575;-45
2022/11/15 10:26:28;;;;;;;1.10;0.70;;;12.90;99.90;;;;;;6156882;23;20154;-45
2022/11/15 10:28:53;;;;;;;1.57;0.80;;;12.90;99.90;;;;;;6157116;23;20225;-46
2022/11/15 10:31:28;;;;;;;1.17;0.67;;;12.90;99.90;;;;;;6156824;23;20149;-46
2022/11/15 10:34:14;;;;;;;2.37;1.20;;;13.00;99.90;;;;;;6156942;23;20165;-44
2022/11/15 10:36:44;;;;;;;2.40;1.40;;;13.10;99.90;;;;;;6157030;23;20174;-44
2022/11/15 10:39:13;;;;;;;2.10;0.90;;;13.10;99.90;;;;;;6157028;23;20209;-46
2022/11/15 10:41:41;;;;;;;2.77;1.20;;;13.10;99.90;;;;;;6156817;23;20165;-44
2022/11/15 10:44:06;;;;;;;3.07;1.10;;;13.20;99.90;;;;;;6157041;23;20232;-45
2022/11/15 10:46:34;;;;;;;2.60;1.10;;;13.30;99.90;;;;;;6157041;23;20481;-45
2022/11/15 10:49:20;;;;;;;3.37;1.37;;;13.30;99.90;;;;;;6156604;23;20197;-47
2022/11/15 10:51:56;;;;;;;4.57;1.27;;;13.40;99.90;;;;;;6156768;23;20142;-45
2022/11/15 10:54:27;;;;;;;2.33;1.13;;;13.40;99.90;;;;;;6156961;23;20614;-43
2022/11/15 10:56:57;;;;;;;1.70;0.80;;;13.50;99.90;;;;;;6156758;23;20232;-45
2022/11/15 10:59:30;;;;;;;1.70;0.70;;;13.60;99.90;;;;;;6156928;23;20173;-46
2022/11/15 11:01:56;;;;;;;2.73;0.90;;;13.60;99.90;;;;;;6156931;23;20161;-45
2022/11/15 11:04:22;;;;;;;4.77;0.80;;;13.70;99.90;;;;;;6156567;23;20174;-45
2022/11/15 11:06:51;;;;;;;1.73;0.57;;;13.90;99.90;;;;;;6156484;23;20224;-46
2022/11/15 11:09:23;;;;;;;3.87;0.70;;;13.90;99.90;;;;;;6156435;23;20178;-45
2022/11/15 11:11:50;;;;;;;2.97;0.50;;;14.00;99.90;;;;;;6156525;23;20154;-47
2022/11/15 11:14:26;;;;;;;1.13;0.50;;;14.00;99.90;;;;;;6156832;23;20181;-47
2022/11/15 11:17:01;;;;;;;1.70;0.40;;;14.00;99.90;;;;;;6157097;23;20499;-44
2022/11/15 11:20:04;;;;;;;3.00;0.50;;;14.10;99.90;;;;;;6156726;23;20207;-45
2022/11/15 11:22:53;;;;;;;1.23;0.60;;;14.10;99.90;;;;;;6156424;23;20210;-44
2022/11/15 11:26:03;;;;;;;3.43;0.70;;;14.20;99.90;;;;;;6156424;23;20193;-44
2022/11/15 11:28:40;;;;;;;2.27;0.60;;;14.20;99.90;;;;;;6156444;23;20200;-44
2022/11/15 11:31:39;;;;;;;1.67;0.40;;;14.40;99.90;;;;;;6156539;23;20148;-44
2022/11/15 11:34:34;;;;;;;1.33;0.40;;;14.50;99.90;;;;;;6156655;23;20146;-45
2022/11/15 11:37:11;;;;;;;1.23;0.50;;;14.70;99.90;;;;;;6156371;23;20596;-46
2022/11/15 11:40:14;;;;;;;1.63;0.63;;;14.80;99.90;;;;;;6156463;23;20178;-47
2022/11/15 11:42:59;;;;;;;2.23;0.70;;;14.70;99.90;;;;;;6156177;23;20146;-45
2022/11/15 11:45:51;;;;;;;1.90;0.60;;;14.80;99.90;;;;;;6157204;23;20156;-46
2022/11/15 11:48:25;;;;;;;3.10;0.80;;;14.80;99.90;;;;;;6156016;23;20644;-45
2022/11/15 11:50:53;;;;;;;1.40;0.40;;;14.90;99.90;;;;;;6156458;23;20640;-47
2022/11/15 11:53:31;;;;;;;1.63;0.70;;;14.90;99.90;;;;;;6156148;23;20224;-45
2022/11/15 11:56:01;;;;;;;2.03;0.70;;;15.00;99.90;;;;;;6156092;23;20580;-46
2022/11/15 11:58:36;;;;;;;1.60;0.70;;;15.10;99.90;;;;;;6156058;23;20509;-47
2022/11/15 12:01:25;;;;;;;2.87;1.00;;;15.10;99.90;;;;;;6156469;23;20165;-46
2022/11/15 12:04:00;;;;;;;3.03;1.13;;;15.20;99.90;;;;;;6140019;23;20177;-45
2022/11/15 12:06:56;;;;;;;4.57;1.10;;;15.20;99.90;;;;;;6156420;23;20187;-46
2022/11/15 12:09:22;;;;;;;3.33;1.00;;;15.10;99.90;;;;;;6156026;23;20181;-45
2022/11/15 12:12:24;;;;;;;2.63;0.73;;;15.10;99.90;;;;;;6156070;23;20158;-45
2022/11/15 12:15:02;;;;;;;3.23;1.10;;;15.10;99.90;;;;;;6156651;23;20149;-45
2022/11/15 12:17:33;;;;;;;3.73;1.10;;;15.10;99.90;;;;;;6156446;23;20604;-45
2022/11/15 12:20:03;;;;;;;3.90;1.27;;;15.10;99.90;;;;;;6156225;23;20142;-46
2022/11/15 12:22:55;;;;;;;1.33;0.83;;;15.20;99.90;;;;;;6156306;23;20156;-45
2022/11/15 12:25:23;;;;;;;4.10;0.97;;;15.20;99.90;;;;;;6156271;23;20172;-47
2022/11/15 12:28:12;;;;;;;3.50;0.80;;;15.20;99.90;;;;;;6155934;23;20177;-45
2022/11/15 12:31:04;;;;;;;2.83;0.70;;;15.10;99.90;;;;;;6155931;23;20300;-47
2022/11/15 12:33:41;;;;;;;1.43;0.60;;;15.00;99.90;;;;;;6155156;23;20172;-45
2022/11/15 12:36:29;;;;;;;3.80;1.07;;;15.10;99.90;;;;;;6156068;23;20153;-45
2022/11/15 12:39:00;;;;;;;2.30;1.17;;;15.10;99.90;;;;;;6156227;23;20178;-47
2022/11/15 12:41:34;;;;;;;1.80;0.70;;;15.00;99.90;;;;;;6157440;23;20311;-45
2022/11/15 12:44:00;;;;;;;3.73;1.57;;;15.00;99.90;;;;;;6158247;23;20164;-45
2022/11/15 12:46:29;;;;;;;3.80;1.27;;;15.00;99.90;;;;;;6158247;23;20157;-46
2022/11/15 12:49:07;;;;;;;3.27;1.00;;;14.90;99.90;;;;;;6157845;23;20560;-46
2022/11/15 12:51:41;;;;;;;2.63;0.80;;;15.00;99.90;;;;;;6157945;23;20138;-45
2022/11/15 12:54:22;;;;;;;3.80;0.87;;;15.00;99.90;;;;;;6158225;23;20153;-47
2022/11/15 12:57:03;;;;;;;4.17;0.93;;;14.90;99.90;;;;;;6157679;23;20623;-46
2022/11/15 13:00:06;;;;;;;2.23;0.70;;;14.90;99.90;;;;;;6157726;23;20569;-44
2022/11/15 13:02:38;;;;;;;1.83;0.77;;;14.90;99.90;;;;;;6060208;23;20237;-45
2022/11/15 13:05:30;;;;;;;8.23;0.90;;;14.90;99.90;;;;;;6157686;23;20165;-45
2022/11/15 13:07:58;;;;;;;6.90;1.00;;;14.80;99.90;;;;;;6113245;23;20188;-45
2022/11/15 13:10:27;;;;;;;8.77;1.17;;;14.80;99.90;;;;;;6158793;23;20150;-46
2022/11/15 13:12:58;;;;;;;2.17;0.80;;;14.80;99.90;;;;;;6159390;23;20161;-51
2022/11/15 13:15:29;;;;;;;2.67;1.03;;;14.80;99.90;;;;;;6157762;23;20224;-50
2022/11/15 13:17:56;;;;;;;8.63;1.60;;;14.80;99.90;;;;;;6157780;23;20248;-50
2022/11/15 13:20:24;;;;;;;4.00;1.73;;;14.70;99.90;;;;;;6157488;23;20164;-49